createdAt,value
2023-03-29T00:00:37.171Z,74.03
2023-03-29T00:03:09.750Z,75.50
2023-03-29T00:05:42.199Z,75.23
2023-03-29T00:08:15.311Z,74.86
2023-03-29T00:10:50.636Z,75.15
2023-03-29T00:13:21.895Z,75.43
2023-03-29T00:15:54.493Z,74.75
2023-03-29T00:18:25.805Z,75.45
2023-03-29T00:20:58.958Z,76.24
2023-03-29T00:23:30.599Z,75.01
2023-03-29T00:26:02.442Z,74.51
2023-03-29T00:28:34.810Z,75.29
2023-03-29T00:31:10.631Z,75.05
2023-03-29T00:33:43.908Z,75.24
2023-03-29T00:36:18.077Z,75.16
2023-03-29T00:38:50.002Z,74.88
2023-03-29T00:41:22.906Z,75.08
2023-03-29T00:44:01.666Z,75.78
2023-03-29T00:46:36.180Z,75.34
2023-03-29T00:49:15.008Z,76.04
2023-03-29T00:51:47.045Z,75.40
2023-03-29T00:54:20.390Z,75.48
2023-03-29T00:56:53.734Z,75.57
2023-03-29T00:59:30.007Z,75.30
2023-03-29T01:02:06.667Z,75.34
2023-03-29T01:04:59.394Z,75.05
2023-03-29T01:07:58.845Z,74.83
2023-03-29T01:10:42.030Z,74.84
2023-03-29T01:13:19.343Z,74.56
2023-03-29T01:15:50.809Z,74.97
2023-03-29T01:18:24.021Z,74.59
2023-03-29T01:21:11.385Z,75.34
2023-03-29T01:23:52.082Z,74.58
2023-03-29T01:26:43.425Z,74.56
2023-03-29T01:29:36.354Z,74.46
2023-03-29T01:32:15.040Z,74.40
2023-03-29T01:35:11.047Z,74.46
2023-03-29T01:37:52.788Z,74.82
2023-03-29T01:40:23.638Z,74.77
2023-03-29T01:43:20.592Z,75.12
2023-03-29T01:46:17.329Z,74.95
2023-03-29T01:48:54.305Z,75.21
2023-03-29T01:51:37.082Z,75.27
2023-03-29T01:54:22.672Z,75.33
2023-03-29T01:56:58.029Z,75.61
2023-03-29T01:59:33.165Z,75.61
2023-03-29T02:02:11.060Z,75.00
2023-03-29T02:04:48.853Z,75.12
2023-03-29T02:07:27.126Z,75.31
2023-03-29T02:10:01.295Z,75.17
2023-03-29T02:12:34.006Z,75.49
2023-03-29T02:15:05.896Z,75.44
2023-03-29T02:17:37.981Z,75.30
2023-03-29T02:20:23.233Z,75.38
2023-03-29T02:23:15.258Z,75.41
2023-03-29T02:25:48.443Z,75.90
2023-03-29T02:28:19.310Z,75.42
2023-03-29T02:30:51.502Z,75.46
2023-03-29T02:33:46.852Z,75.20
2023-03-29T02:36:25.163Z,75.15
2023-03-29T02:38:57.849Z,75.70
2023-03-29T02:41:29.851Z,75.14
2023-03-29T02:44:05.690Z,75.41
2023-03-29T02:46:39.224Z,75.22
2023-03-29T02:49:12.405Z,75.14
2023-03-29T02:51:43.863Z,75.49
2023-03-29T02:54:22.890Z,75.27
2023-03-29T02:57:02.681Z,75.29
2023-03-29T02:59:34.911Z,75.23
2023-03-29T03:02:06.598Z,75.20
2023-03-29T03:04:38.485Z,75.64
2023-03-29T03:07:10.572Z,75.44
2023-03-29T03:09:42.551Z,75.15
2023-03-29T03:12:14.232Z,75.49
2023-03-29T03:14:45.850Z,75.21
2023-03-29T03:17:19.282Z,75.22
2023-03-29T03:19:50.936Z,75.40
2023-03-29T03:22:23.517Z,75.47
2023-03-29T03:24:56.867Z,74.99
2023-03-29T03:27:28.352Z,75.20
2023-03-29T03:29:59.567Z,74.96
2023-03-29T03:32:34.573Z,75.21
2023-03-29T03:35:09.680Z,74.92
2023-03-29T03:37:42.183Z,74.95
2023-03-29T03:40:15.205Z,74.97
2023-03-29T03:42:46.684Z,74.98
2023-03-29T03:45:19.078Z,74.76
2023-03-29T03:47:53.272Z,74.72
2023-03-29T03:50:25.642Z,74.55
2023-03-29T03:52:56.734Z,74.37
2023-03-29T03:55:33.736Z,74.34
2023-03-29T03:58:05.121Z,73.94
2023-03-29T04:00:36.387Z,74.17
2023-03-29T04:03:09.626Z,73.77
2023-03-29T04:05:45.942Z,73.95
2023-03-29T04:08:16.249Z,73.53
2023-03-29T04:10:55.533Z,73.73
2023-03-29T04:13:27.739Z,73.50
2023-03-29T04:16:05.043Z,73.39
2023-03-29T04:18:36.050Z,73.36
2023-03-29T04:21:08.111Z,72.90
2023-03-29T04:23:40.390Z,72.84
2023-03-29T04:26:13.673Z,73.33
2023-03-29T04:28:45.571Z,72.51
2023-03-29T04:31:17.174Z,72.24
2023-03-29T04:33:52.321Z,72.43
2023-03-29T04:36:25.928Z,71.92
2023-03-29T04:38:56.813Z,72.37
2023-03-29T04:41:30.332Z,72.13
2023-03-29T04:44:04.439Z,71.98
2023-03-29T04:46:37.187Z,71.83
2023-03-29T04:49:09.902Z,71.75
2023-03-29T04:51:41.884Z,71.43
2023-03-29T04:54:14.530Z,71.43
2023-03-29T04:56:48.465Z,71.36
2023-03-29T04:59:21.696Z,71.29
2023-03-29T05:01:52.953Z,71.10
2023-03-29T05:04:25.922Z,70.92
2023-03-29T05:07:02.464Z,70.97
2023-03-29T05:09:36.945Z,70.99
2023-03-29T05:12:09.753Z,71.08
2023-03-29T05:14:43.858Z,70.99
2023-03-29T05:17:15.589Z,70.83
2023-03-29T05:19:46.304Z,70.69
2023-03-29T05:22:18.135Z,70.68
2023-03-29T05:24:52.732Z,70.67
2023-03-29T05:27:25.235Z,70.31
2023-03-29T05:30:00.308Z,70.35
2023-03-29T05:32:34.248Z,70.05
2023-03-29T05:35:06.270Z,70.37
2023-03-29T05:37:38.300Z,70.06
2023-03-29T05:40:11.833Z,70.29
2023-03-29T05:42:45.498Z,70.10
2023-03-29T05:45:19.585Z,69.81
2023-03-29T05:47:52.439Z,69.58
2023-03-29T05:50:24.608Z,68.99
2023-03-29T05:52:59.442Z,68.93
2023-03-29T05:55:31.823Z,68.22
2023-03-29T05:58:03.177Z,68.16
2023-03-29T06:00:37.610Z,68.26
2023-03-29T06:03:21.243Z,68.25
2023-03-29T06:06:03.828Z,68.34
2023-03-29T06:08:36.541Z,67.99
2023-03-29T06:11:13.899Z,67.98
2023-03-29T06:13:50.260Z,67.70
2023-03-29T06:16:21.945Z,67.64
2023-03-29T06:18:54.581Z,67.51
2023-03-29T06:21:28.383Z,67.35
2023-03-29T06:23:59.489Z,66.93
2023-03-29T06:26:32.599Z,66.89
2023-03-29T06:29:05.116Z,66.91
2023-03-29T06:31:37.462Z,66.83
2023-03-29T06:34:08.412Z,66.76
2023-03-29T06:36:43.610Z,66.77
2023-03-29T06:39:15.556Z,66.48
2023-03-29T06:41:50.596Z,66.29
2023-03-29T06:44:23.256Z,66.08
2023-03-29T06:46:54.912Z,65.69
2023-03-29T06:49:27.531Z,65.18
2023-03-29T06:52:01.474Z,64.82
2023-03-29T06:54:33.043Z,64.36
2023-03-29T06:57:06.101Z,63.88
2023-03-29T06:59:38.562Z,63.36
2023-03-29T07:02:12.713Z,63.04
2023-03-29T07:04:48.709Z,62.75
2023-03-29T07:07:22.338Z,62.60
2023-03-29T07:09:55.489Z,62.26
2023-03-29T07:12:27.570Z,62.49
2023-03-29T07:15:00.030Z,62.42
2023-03-29T07:17:36.892Z,62.38
2023-03-29T07:20:14.959Z,62.29
2023-03-29T07:22:47.521Z,62.27
2023-03-29T07:25:20.176Z,61.86
2023-03-29T07:27:51.928Z,62.01
2023-03-29T07:30:25.932Z,61.86
2023-03-29T07:33:01.323Z,61.81
2023-03-29T07:35:34.609Z,61.73
2023-03-29T07:38:05.945Z,61.54
2023-03-29T07:40:38.316Z,61.29
2023-03-29T07:43:12.933Z,60.82
2023-03-29T07:45:45.533Z,60.73
2023-03-29T07:48:16.951Z,60.59
2023-03-29T07:50:50.632Z,60.62
2023-03-29T07:53:22.494Z,60.34
2023-03-29T07:55:56.187Z,60.27
2023-03-29T07:58:29.735Z,60.04
2023-03-29T08:01:02.178Z,59.79
2023-03-29T08:03:35.666Z,59.61
2023-03-29T08:06:09.156Z,59.60
2023-03-29T08:08:40.536Z,59.48
2023-03-29T08:11:11.678Z,59.47
2023-03-29T08:13:44.061Z,59.46
2023-03-29T08:16:18.821Z,59.71
2023-03-29T08:18:51.626Z,59.79
2023-03-29T08:21:23.828Z,60.22
2023-03-29T08:23:55.443Z,60.53
2023-03-29T08:26:27.813Z,60.88
2023-03-29T08:28:59.298Z,61.50
2023-03-29T08:31:31.711Z,62.19
2023-03-29T08:34:04.606Z,62.70
2023-03-29T08:36:43.169Z,62.86
2023-03-29T08:39:16.786Z,63.13
2023-03-29T08:42:05.973Z,63.27
2023-03-29T08:45:07.532Z,63.32
2023-03-29T08:48:05.464Z,63.01
2023-03-29T08:50:46.830Z,62.70
2023-03-29T08:53:22.995Z,62.43
2023-03-29T08:55:59.905Z,61.86
2023-03-29T08:58:36.222Z,61.39
2023-03-29T09:01:12.504Z,60.89
2023-03-29T09:04:02.227Z,60.35
2023-03-29T09:06:34.192Z,59.93
2023-03-29T09:09:11.687Z,59.70
2023-03-29T09:12:05.775Z,59.58
2023-03-29T09:14:58.733Z,59.52
2023-03-29T09:17:35.220Z,59.38
2023-03-29T09:20:32.934Z,59.58
2023-03-29T09:23:10.936Z,60.01
2023-03-29T09:25:56.570Z,60.19
2023-03-29T09:28:55.628Z,61.19
2023-03-29T09:31:33.972Z,61.99
2023-03-29T09:34:15.976Z,62.73
2023-03-29T09:37:05.326Z,63.32
2023-03-29T09:39:39.029Z,64.21
2023-03-29T09:42:15.009Z,64.74
2023-03-29T09:44:52.785Z,65.31
2023-03-29T09:47:35.157Z,65.95
2023-03-29T09:50:29.470Z,66.49
2023-03-29T09:53:02.131Z,67.13
2023-03-29T09:55:37.741Z,67.30
2023-03-29T09:58:21.193Z,67.64
2023-03-29T10:00:54.353Z,68.33
2023-03-29T10:03:31.148Z,68.12
2023-03-29T10:06:06.450Z,68.28
2023-03-29T10:08:44.245Z,67.80
2023-03-29T10:11:24.934Z,68.26
2023-03-29T10:13:58.088Z,68.80
2023-03-29T10:16:40.054Z,68.54
2023-03-29T10:19:25.712Z,68.39
2023-03-29T10:22:01.560Z,68.97
2023-03-29T10:24:33.781Z,69.11
2023-03-29T10:27:09.037Z,68.89
2023-03-29T10:29:44.711Z,69.60
2023-03-29T10:32:34.913Z,70.23
2023-03-29T10:35:31.535Z,71.30
2023-03-29T10:38:05.768Z,70.70
2023-03-29T10:40:45.454Z,70.80
2023-03-29T10:43:24.270Z,71.36
2023-03-29T10:45:58.380Z,71.67
2023-03-29T10:48:33.758Z,71.72
2023-03-29T10:51:08.858Z,71.37
2023-03-29T10:53:39.959Z,72.02
2023-03-29T10:56:33.987Z,72.09
2023-03-29T10:59:31.995Z,72.62
2023-03-29T11:02:44.071Z,72.58
2023-03-29T11:05:22.840Z,72.62
2023-03-29T11:08:21.992Z,73.00
2023-03-29T11:11:10.365Z,73.38
2023-03-29T11:13:50.288Z,73.59
2023-03-29T11:16:31.758Z,73.44
2023-03-29T11:19:42.803Z,73.75
2023-03-29T11:22:26.590Z,74.43
2023-03-29T11:25:29.723Z,74.27
2023-03-29T11:28:20.593Z,74.24
2023-03-29T11:31:19.454Z,74.74
2023-03-29T11:34:00.879Z,74.41
2023-03-29T11:36:52.625Z,74.89
2023-03-29T11:39:29.628Z,74.79
2023-03-29T11:42:14.124Z,75.25
2023-03-29T11:44:50.198Z,75.31
2023-03-29T11:47:23.958Z,75.78
2023-03-29T11:50:16.073Z,75.90
2023-03-29T11:52:52.381Z,75.90
2023-03-29T11:55:42.169Z,75.69
2023-03-29T11:58:25.295Z,76.41
2023-03-29T12:01:05.691Z,76.11
2023-03-29T12:03:54.122Z,76.47
2023-03-29T12:06:33.682Z,76.57
2023-03-29T12:09:13.689Z,77.30
2023-03-29T12:11:58.557Z,76.82
2023-03-29T12:14:49.991Z,76.67
2023-03-29T12:17:31.164Z,76.44
2023-03-29T12:20:27.782Z,76.64
2023-03-29T12:23:01.965Z,76.56
2023-03-29T12:25:56.792Z,76.71
2023-03-29T12:29:06.098Z,76.71
2023-03-29T12:32:17.179Z,77.46
2023-03-29T12:35:18.361Z,77.59
2023-03-29T12:38:23.631Z,78.05
2023-03-29T12:41:05.786Z,77.62
2023-03-29T12:43:44.213Z,77.37
2023-03-29T12:46:24.731Z,77.49
2023-03-29T12:48:58.863Z,77.39
2023-03-29T12:51:34.752Z,77.14
2023-03-29T12:54:18.011Z,77.52
2023-03-29T12:56:59.701Z,77.55
2023-03-29T12:59:49.485Z,77.50
2023-03-29T13:02:33.855Z,78.09
2023-03-29T13:05:08.090Z,78.25
2023-03-29T13:07:48.478Z,77.64
2023-03-29T13:10:42.538Z,78.53
2023-03-29T13:13:25.071Z,78.51
2023-03-29T13:15:55.473Z,78.74
2023-03-29T13:18:41.857Z,78.85
2023-03-29T13:21:37.928Z,79.10
2023-03-29T13:24:37.911Z,78.69
2023-03-29T13:27:35.173Z,78.96
2023-03-29T13:30:25.196Z,79.18
2023-03-29T13:33:13.842Z,79.30
2023-03-29T13:35:53.014Z,79.31
2023-03-29T13:38:30.433Z,79.73
2023-03-29T13:41:06.149Z,79.58
2023-03-29T13:43:58.940Z,79.76
2023-03-29T13:46:46.271Z,79.47
2023-03-29T13:49:26.118Z,79.30
2023-03-29T13:52:14.058Z,80.03
2023-03-29T13:54:59.385Z,79.61
2023-03-29T13:57:42.016Z,80.23
2023-03-29T14:00:18.884Z,80.24
2023-03-29T14:02:57.091Z,80.04
2023-03-29T14:05:34.915Z,80.94
2023-03-29T14:08:18.923Z,80.86
2023-03-29T14:10:51.784Z,80.46
2023-03-29T14:13:26.525Z,80.56
2023-03-29T14:16:05.656Z,80.00
2023-03-29T14:18:41.840Z,80.34
2023-03-29T14:21:15.288Z,80.19
2023-03-29T14:23:55.679Z,80.96
2023-03-29T14:26:33.414Z,81.03
2023-03-29T14:29:06.279Z,80.36
2023-03-29T14:31:41.441Z,80.76
2023-03-29T14:34:19.240Z,80.86
2023-03-29T14:36:51.750Z,80.54
2023-03-29T14:39:25.612Z,80.84
2023-03-29T14:41:58.731Z,81.20
2023-03-29T14:44:34.308Z,80.80
2023-03-29T14:47:06.827Z,80.70
2023-03-29T14:49:40.179Z,80.92
2023-03-29T14:52:14.032Z,80.78
2023-03-29T14:54:50.429Z,80.73
2023-03-29T14:57:27.690Z,80.31
2023-03-29T15:00:07.935Z,80.04
2023-03-29T15:02:39.411Z,79.95
2023-03-29T15:05:26.524Z,79.64
2023-03-29T15:07:57.233Z,79.86
2023-03-29T15:10:28.457Z,80.32
2023-03-29T15:13:04.302Z,80.50
2023-03-29T15:15:39.265Z,80.52
2023-03-29T15:18:13.367Z,80.37
2023-03-29T15:20:46.588Z,80.85
2023-03-29T15:23:23.137Z,80.68
2023-03-29T15:26:08.660Z,80.61
2023-03-29T15:28:50.161Z,80.64
2023-03-29T15:31:24.167Z,80.83
2023-03-29T15:34:14.334Z,80.64
2023-03-29T15:36:47.266Z,80.71
2023-03-29T15:39:21.188Z,81.48
2023-03-29T15:41:54.338Z,81.12
2023-03-29T15:44:36.196Z,81.28
2023-03-29T15:47:13.300Z,81.59
2023-03-29T15:49:45.213Z,80.99
2023-03-29T15:52:19.059Z,80.98
2023-03-29T15:54:50.182Z,80.98
2023-03-29T15:57:23.117Z,80.57
2023-03-29T15:59:54.969Z,80.53
2023-03-29T16:02:27.708Z,80.39
2023-03-29T16:04:59.572Z,80.81
2023-03-29T16:07:32.204Z,80.50
2023-03-29T16:10:04.011Z,80.16
2023-03-29T16:12:36.996Z,80.21
2023-03-29T16:15:22.182Z,80.74
2023-03-29T16:17:53.408Z,80.55
2023-03-29T16:20:25.737Z,80.23
2023-03-29T16:22:56.755Z,81.18
2023-03-29T16:25:27.685Z,80.71
2023-03-29T16:27:58.698Z,80.59
2023-03-29T16:30:32.443Z,80.61
2023-03-29T16:33:07.054Z,80.07
2023-03-29T16:35:41.496Z,80.16
2023-03-29T16:38:13.933Z,80.06
2023-03-29T16:40:46.146Z,79.94
2023-03-29T16:43:17.570Z,79.87
2023-03-29T16:45:48.983Z,80.10
2023-03-29T16:48:21.095Z,80.00
2023-03-29T16:50:51.884Z,79.97
2023-03-29T16:53:24.892Z,80.43
2023-03-29T16:55:57.988Z,79.95
2023-03-29T16:58:28.693Z,80.60
2023-03-29T17:01:00.280Z,79.99
2023-03-29T17:03:31.574Z,79.72
2023-03-29T17:06:05.446Z,80.33
2023-03-29T17:08:37.832Z,79.94
2023-03-29T17:11:10.773Z,80.03
2023-03-29T17:13:42.827Z,80.39
2023-03-29T17:16:14.870Z,80.12
2023-03-29T17:18:46.726Z,79.69
2023-03-29T17:21:19.317Z,79.61
2023-03-29T17:23:49.791Z,79.52
2023-03-29T17:26:21.803Z,80.02
2023-03-29T17:28:53.061Z,79.86
2023-03-29T17:31:24.817Z,80.08
2023-03-29T17:33:55.406Z,80.39
2023-03-29T17:36:29.652Z,80.41
2023-03-29T17:39:02.566Z,79.70
2023-03-29T17:41:34.356Z,79.99
2023-03-29T17:44:05.509Z,80.45
2023-03-29T17:46:39.148Z,80.61
2023-03-29T17:49:10.170Z,79.63
2023-03-29T17:51:41.524Z,79.60
2023-03-29T17:54:13.559Z,79.30
2023-03-29T17:56:45.639Z,79.65
2023-03-29T17:59:17.717Z,79.19
2023-03-29T18:01:49.683Z,79.52
2023-03-29T18:04:19.434Z,79.89
2023-03-29T18:06:51.166Z,79.61
2023-03-29T18:09:24.515Z,80.01
2023-03-29T18:11:57.058Z,80.47
2023-03-29T18:14:28.960Z,79.92
2023-03-29T18:19:45.575Z,79.98
2023-03-29T18:22:19.150Z,79.79
2023-03-29T18:24:49.997Z,79.63
2023-03-29T18:27:21.786Z,79.80
2023-03-29T18:29:52.966Z,80.02
2023-03-29T18:32:23.668Z,79.05
2023-03-29T18:34:54.475Z,79.17
2023-03-29T18:37:26.956Z,79.66
2023-03-29T18:39:58.983Z,80.13
2023-03-29T18:42:31.049Z,79.72
2023-03-29T18:45:04.099Z,79.54
2023-03-29T18:47:35.941Z,79.97
2023-03-29T18:50:07.634Z,79.94
2023-03-29T18:52:39.134Z,80.20
2023-03-29T18:55:11.016Z,79.84
2023-03-29T18:57:42.420Z,79.72
2023-03-29T19:00:14.529Z,79.83
2023-03-29T19:02:45.646Z,79.94
2023-03-29T19:05:18.124Z,79.53
2023-03-29T19:07:49.890Z,80.00
2023-03-29T19:10:22.526Z,79.96
2023-03-29T19:12:55.056Z,79.92
2023-03-29T19:15:26.556Z,79.65
2023-03-29T19:17:58.274Z,80.12
2023-03-29T19:20:31.141Z,79.79
2023-03-29T19:23:02.678Z,79.94
2023-03-29T19:25:34.004Z,80.13
2023-03-29T19:28:07.191Z,80.27
2023-03-29T19:30:39.715Z,80.26
2023-03-29T19:33:10.933Z,80.61
2023-03-29T19:35:43.067Z,80.47
2023-03-29T19:38:14.938Z,80.27
2023-03-29T19:40:48.567Z,80.52
2023-03-29T19:43:19.636Z,80.56
2023-03-29T19:45:52.636Z,80.58
2023-03-29T19:48:24.930Z,80.55
2023-03-29T19:50:55.729Z,80.29
2023-03-29T19:53:27.005Z,81.19
2023-03-29T19:55:59.058Z,80.81
2023-03-29T19:58:30.605Z,81.32
2023-03-29T20:01:03.288Z,80.31
2023-03-29T20:03:35.331Z,80.49
2023-03-29T20:06:07.603Z,80.90
2023-03-29T20:08:40.309Z,80.81
2023-03-29T20:11:12.895Z,80.75
2023-03-29T20:13:45.911Z,80.93
2023-03-29T20:16:19.359Z,80.80
2023-03-29T20:18:49.746Z,80.92
2023-03-29T20:21:20.704Z,80.93
2023-03-29T20:23:52.213Z,80.82
2023-03-29T20:26:23.720Z,80.99
2023-03-29T20:28:54.619Z,80.89
2023-03-29T20:31:26.269Z,80.97
2023-03-29T20:33:57.993Z,81.20
2023-03-29T20:36:31.753Z,81.12
2023-03-29T20:39:03.703Z,81.29
2023-03-29T20:41:39.185Z,81.16
2023-03-29T20:44:11.958Z,80.77
2023-03-29T20:46:54.816Z,80.84
2023-03-29T20:49:27.112Z,81.16
2023-03-29T20:51:59.289Z,81.04
2023-03-29T20:54:34.665Z,81.06
2023-03-29T20:57:07.412Z,80.47
2023-03-29T20:59:39.405Z,80.64
2023-03-29T21:02:13.892Z,81.51
2023-03-29T21:04:45.177Z,80.69
2023-03-29T21:07:17.799Z,83.03
2023-03-29T21:09:50.609Z,82.24
2023-03-29T21:12:24.746Z,80.59
2023-03-29T21:14:57.687Z,82.09
2023-03-29T21:17:29.561Z,82.92
2023-03-29T21:20:01.003Z,81.48
2023-03-29T21:22:34.378Z,82.75
2023-03-29T21:25:06.263Z,83.21
2023-03-29T21:27:40.484Z,83.99
2023-03-29T21:30:13.837Z,82.68
2023-03-29T21:32:45.045Z,84.09
2023-03-29T21:35:16.582Z,83.18
2023-03-29T21:37:47.177Z,82.77
2023-03-29T21:40:17.399Z,85.43
2023-03-29T21:42:49.312Z,81.07
2023-03-29T21:45:21.956Z,81.33
2023-03-29T21:47:53.497Z,83.53
2023-03-29T21:50:28.028Z,83.94
2023-03-29T21:52:59.201Z,82.24
2023-03-29T21:55:30.286Z,84.02
2023-03-29T21:58:02.262Z,84.95
2023-03-29T22:00:34.104Z,85.69
2023-03-29T22:03:05.655Z,86.08
2023-03-29T22:05:37.394Z,83.06
2023-03-29T22:08:11.710Z,83.24
2023-03-29T22:10:42.879Z,85.55
2023-03-29T22:13:15.237Z,84.86
2023-03-29T22:15:47.321Z,83.33
2023-03-29T22:18:18.531Z,85.83
2023-03-29T22:20:50.643Z,86.31
2023-03-29T22:23:22.139Z,84.54
2023-03-29T22:25:52.301Z,85.93
2023-03-29T22:28:24.625Z,86.42
2023-03-29T22:30:56.036Z,85.71
2023-03-29T22:33:26.966Z,86.51
2023-03-29T22:35:58.818Z,86.05
2023-03-29T22:38:33.062Z,85.71
2023-03-29T22:41:05.021Z,85.86
2023-03-29T22:43:38.291Z,86.05
2023-03-29T22:46:12.616Z,85.76
2023-03-29T22:48:44.645Z,87.93
2023-03-29T22:51:17.086Z,87.23
2023-03-29T22:53:48.828Z,88.63
2023-03-29T22:56:19.371Z,86.99
2023-03-29T22:58:50.614Z,89.19
2023-03-29T23:01:22.979Z,89.20
2023-03-29T23:03:54.233Z,88.67
2023-03-29T23:06:25.329Z,89.60
2023-03-29T23:08:57.113Z,89.63
2023-03-29T23:11:29.500Z,85.24
2023-03-29T23:14:05.093Z,87.90
2023-03-29T23:16:38.426Z,88.89
2023-03-29T23:19:08.823Z,88.67
2023-03-29T23:21:40.309Z,84.16
2023-03-29T23:24:12.553Z,83.88
2023-03-29T23:26:43.814Z,86.78
2023-03-29T23:29:16.584Z,88.72
2023-03-29T23:31:48.479Z,88.59
2023-03-29T23:34:21.508Z,87.12
2023-03-29T23:36:51.796Z,85.61
2023-03-29T23:39:24.822Z,86.02
2023-03-29T23:41:55.555Z,87.93
2023-03-29T23:44:26.149Z,87.44
2023-03-29T23:46:56.932Z,86.92
2023-03-29T23:49:27.091Z,85.94
2023-03-29T23:52:01.324Z,86.72
2023-03-29T23:54:32.735Z,89.00
2023-03-29T23:57:05.790Z,86.50
2023-03-29T23:59:38.581Z,88.29
